createdAt,value
2023-03-19T00:01:04.828Z,11.70
2023-03-19T00:03:34.754Z,11.73
2023-03-19T00:06:03.211Z,11.17
2023-03-19T00:08:31.613Z,12.03
2023-03-19T00:10:59.995Z,11.30
2023-03-19T00:13:28.573Z,12.30
2023-03-19T00:15:56.993Z,11.53
2023-03-19T00:18:25.422Z,10.63
2023-03-19T00:20:55.204Z,11.33
2023-03-19T00:23:23.737Z,11.20
2023-03-19T00:25:52.154Z,10.83
2023-03-19T00:28:20.519Z,10.23
2023-03-19T00:30:49.564Z,11.00
2023-03-19T00:33:17.992Z,10.93
2023-03-19T00:35:46.407Z,10.93
2023-03-19T00:38:16.391Z,11.60
2023-03-19T00:40:44.867Z,11.30
2023-03-19T00:43:13.255Z,11.30
2023-03-19T00:45:41.861Z,11.00
2023-03-19T00:48:10.271Z,11.83
2023-03-19T00:50:38.669Z,12.40
2023-03-19T00:53:07.106Z,12.57
2023-03-19T00:55:36.902Z,12.00
2023-03-19T00:58:06.648Z,12.30
2023-03-19T01:00:37.710Z,12.23
2023-03-19T01:03:06.481Z,11.60
2023-03-19T01:08:04.927Z,12.77
2023-03-19T01:10:35.677Z,12.33
2023-03-19T01:13:05.491Z,12.37
2023-03-19T01:15:36.855Z,12.17
2023-03-19T01:18:05.318Z,13.30
2023-03-19T01:20:33.969Z,14.73
2023-03-19T01:23:02.637Z,14.60
2023-03-19T01:25:31.025Z,14.03
2023-03-19T01:27:59.396Z,14.83
2023-03-19T01:30:29.184Z,15.37
2023-03-19T01:32:57.908Z,14.43
2023-03-19T01:35:26.624Z,15.27
2023-03-19T01:37:55.842Z,15.23
2023-03-19T01:40:24.288Z,14.90
2023-03-19T01:42:53.323Z,14.70
2023-03-19T01:45:33.926Z,15.37
2023-03-19T01:48:02.552Z,15.53
2023-03-19T01:50:32.374Z,15.20
2023-03-19T01:53:01.784Z,14.07
2023-03-19T01:55:30.226Z,14.67
2023-03-19T01:57:59.175Z,14.17
2023-03-19T02:00:27.656Z,14.80
2023-03-19T02:03:01.016Z,14.80
2023-03-19T02:05:29.731Z,15.07
2023-03-19T02:08:00.306Z,14.60
2023-03-19T02:10:28.822Z,14.93
2023-03-19T02:12:57.262Z,14.63
2023-03-19T02:15:25.691Z,14.40
2023-03-19T02:17:54.677Z,15.43
2023-03-19T02:20:28.072Z,13.37
2023-03-19T02:23:00.871Z,14.93
2023-03-19T02:25:31.073Z,15.10
2023-03-19T02:28:01.600Z,15.00
2023-03-19T02:30:31.386Z,15.27
2023-03-19T02:32:59.996Z,15.27
2023-03-19T02:35:28.900Z,16.20
2023-03-19T02:37:57.454Z,16.03
2023-03-19T02:40:28.387Z,15.47
2023-03-19T02:42:56.850Z,16.33
2023-03-19T02:45:29.927Z,14.90
2023-03-19T02:47:58.339Z,14.60
2023-03-19T02:50:26.702Z,16.30
2023-03-19T02:52:55.198Z,15.40
2023-03-19T02:55:23.648Z,15.83
2023-03-19T02:57:52.099Z,14.37
2023-03-19T03:00:20.889Z,15.57
2023-03-19T03:02:50.827Z,15.10
2023-03-19T03:05:19.296Z,13.90
2023-03-19T03:07:47.808Z,14.73
2023-03-19T03:10:16.242Z,14.33
2023-03-19T03:12:44.731Z,14.10
2023-03-19T03:15:13.245Z,13.70
2023-03-19T03:17:42.237Z,13.97
2023-03-19T03:20:13.488Z,13.97
2023-03-19T03:22:42.232Z,14.97
2023-03-19T03:25:11.204Z,15.33
2023-03-19T03:27:39.839Z,15.30
2023-03-19T03:30:09.213Z,15.93
2023-03-19T03:32:38.047Z,17.03
2023-03-19T03:35:07.045Z,17.10
2023-03-19T03:37:36.938Z,16.97
2023-03-19T03:40:08.139Z,17.27
2023-03-19T03:42:37.539Z,17.37
2023-03-19T03:45:06.637Z,17.27
2023-03-19T03:47:35.028Z,17.57
2023-03-19T03:50:04.422Z,17.77
2023-03-19T03:52:34.201Z,17.77
2023-03-19T03:55:04.129Z,18.27
2023-03-19T03:57:32.534Z,18.83
2023-03-19T04:00:01.250Z,19.03
2023-03-19T04:02:29.696Z,19.33
2023-03-19T04:04:58.188Z,20.33
2023-03-19T04:07:27.185Z,20.20
2023-03-19T04:09:55.734Z,19.57
2023-03-19T04:12:25.501Z,19.33
2023-03-19T04:14:53.915Z,19.70
2023-03-19T04:17:22.357Z,19.53
2023-03-19T04:19:51.165Z,20.37
2023-03-19T04:22:19.625Z,19.63
2023-03-19T04:24:48.004Z,18.90
2023-03-19T04:27:16.410Z,19.63
2023-03-19T04:29:46.313Z,19.27
2023-03-19T04:32:15.341Z,20.40
2023-03-19T04:34:43.738Z,19.60
2023-03-19T04:37:12.532Z,20.00
2023-03-19T04:39:41.002Z,19.20
2023-03-19T04:42:09.678Z,20.07
2023-03-19T04:44:38.609Z,19.67
2023-03-19T04:47:08.466Z,20.23
2023-03-19T04:49:36.867Z,21.10
2023-03-19T04:52:06.204Z,19.07
2023-03-19T04:54:34.924Z,19.87
2023-03-19T04:57:03.350Z,19.77
2023-03-19T04:59:31.986Z,20.57
2023-03-19T05:02:00.630Z,20.97
2023-03-19T05:04:30.447Z,21.23
2023-03-19T05:06:59.709Z,21.10
2023-03-19T05:09:28.081Z,21.90
2023-03-19T05:11:56.617Z,21.27
2023-03-19T05:14:25.056Z,22.23
2023-03-19T05:16:53.481Z,21.53
2023-03-19T05:19:22.419Z,21.60
2023-03-19T05:21:52.214Z,22.30
2023-03-19T05:24:21.398Z,20.93
2023-03-19T05:26:49.845Z,22.57
2023-03-19T05:29:18.241Z,22.43
2023-03-19T05:31:48.114Z,23.43
2023-03-19T05:34:16.648Z,22.70
2023-03-19T05:36:45.043Z,23.27
2023-03-19T05:39:15.349Z,23.27
2023-03-19T05:41:43.750Z,23.33
2023-03-19T05:44:12.207Z,23.50
2023-03-19T05:46:41.700Z,23.27
2023-03-19T05:49:10.116Z,23.07
2023-03-19T05:51:38.623Z,23.13
2023-03-19T05:54:07.056Z,23.13
2023-03-19T05:56:37.358Z,23.50
2023-03-19T05:59:06.969Z,23.80
2023-03-19T06:01:35.631Z,24.67
2023-03-19T06:04:06.088Z,24.07
2023-03-19T06:06:34.837Z,24.97
2023-03-19T06:09:03.231Z,24.20
2023-03-19T06:11:32.009Z,24.20
2023-03-19T06:14:01.795Z,23.83
2023-03-19T06:16:30.239Z,24.80
2023-03-19T06:18:58.732Z,23.43
2023-03-19T06:21:29.741Z,24.13
2023-03-19T06:23:58.206Z,24.43
2023-03-19T06:26:26.752Z,26.53
2023-03-19T06:28:55.458Z,25.50
2023-03-19T06:31:25.292Z,25.33
2023-03-19T06:33:53.699Z,26.60
2023-03-19T06:36:22.107Z,26.20
2023-03-19T06:38:51.524Z,24.63
2023-03-19T06:41:19.954Z,27.00
2023-03-19T06:43:48.375Z,25.23
2023-03-19T06:46:16.809Z,26.27
2023-03-19T06:48:46.666Z,25.00
2023-03-19T06:51:15.076Z,26.77
2023-03-19T06:53:43.491Z,26.97
2023-03-19T06:56:11.895Z,25.93
2023-03-19T06:58:40.361Z,26.93
2023-03-19T07:01:09.307Z,27.67
2023-03-19T07:03:37.715Z,27.37
2023-03-19T07:06:08.344Z,28.27
2023-03-19T07:08:36.731Z,28.60
2023-03-19T07:11:06.056Z,28.27
2023-03-19T07:13:34.504Z,26.40
2023-03-19T07:16:02.921Z,28.47
2023-03-19T07:18:31.657Z,28.07
2023-03-19T07:21:00.134Z,28.70
2023-03-19T07:23:29.890Z,27.27
2023-03-19T07:25:58.577Z,26.20
2023-03-19T07:28:27.050Z,27.57
2023-03-19T07:30:56.337Z,29.60
2023-03-19T07:33:24.752Z,18.67
2023-03-19T07:35:53.538Z,14.63
2023-03-19T07:38:22.113Z,13.23
2023-03-19T07:41:01.829Z,11.83
2023-03-19T07:43:31.313Z,11.97
2023-03-19T07:46:00.081Z,11.87
2023-03-19T07:48:28.863Z,11.70
2023-03-19T07:50:57.257Z,11.63
2023-03-19T07:53:26.124Z,13.67
2023-03-19T07:55:55.945Z,13.50
2023-03-19T07:58:24.357Z,12.60
2023-03-19T08:00:52.767Z,10.97
2023-03-19T08:03:21.181Z,12.00
2023-03-19T08:05:50.196Z,10.67
2023-03-19T08:08:19.204Z,11.30
2023-03-19T08:10:48.144Z,11.13
2023-03-19T08:13:18.218Z,11.17
2023-03-19T08:15:46.643Z,10.37
2023-03-19T08:18:15.012Z,10.90
2023-03-19T08:20:43.417Z,9.73
2023-03-19T08:23:12.100Z,9.80
2023-03-19T08:25:40.527Z,9.67
2023-03-19T08:28:09.865Z,10.00
2023-03-19T08:30:39.749Z,10.20
2023-03-19T08:33:08.825Z,9.70
2023-03-19T08:35:37.349Z,10.00
2023-03-19T08:38:06.134Z,10.43
2023-03-19T08:40:34.836Z,9.80
2023-03-19T08:43:04.078Z,9.37
2023-03-19T08:45:32.470Z,9.57
2023-03-19T08:48:02.206Z,10.63
2023-03-19T08:50:30.620Z,16.80
2023-03-19T08:52:59.008Z,18.20
2023-03-19T08:55:27.417Z,17.13
2023-03-19T08:57:55.838Z,15.73
2023-03-19T09:00:24.432Z,16.10
2023-03-19T09:02:52.820Z,16.60
2023-03-19T09:05:24.285Z,13.73
2023-03-19T09:07:53.340Z,14.43
2023-03-19T09:10:21.754Z,17.07
2023-03-19T09:12:50.269Z,16.50
2023-03-19T09:15:18.682Z,15.13
2023-03-19T09:17:47.146Z,13.50
2023-03-19T09:20:15.670Z,12.07
2023-03-19T09:22:45.615Z,11.90
2023-03-19T09:25:14.087Z,12.73
2023-03-19T09:27:42.504Z,13.43
2023-03-19T09:30:11.582Z,13.03
2023-03-19T09:32:39.998Z,12.90
2023-03-19T09:35:09.229Z,13.07
2023-03-19T09:37:37.910Z,12.80
2023-03-19T09:40:08.678Z,13.20
2023-03-19T09:42:47.268Z,13.77
2023-03-19T09:45:16.807Z,14.63
2023-03-19T09:47:45.782Z,12.73
2023-03-19T09:50:16.326Z,13.57
2023-03-19T09:52:47.092Z,13.60
2023-03-19T09:55:21.105Z,12.20
2023-03-19T09:57:49.639Z,10.20
2023-03-19T10:00:23.667Z,8.77
2023-03-19T10:02:55.492Z,9.13
2023-03-19T10:05:27.134Z,8.80
2023-03-19T10:08:06.888Z,8.53
2023-03-19T10:10:40.670Z,8.23
2023-03-19T10:13:13.507Z,7.90
2023-03-19T10:15:44.340Z,7.57
2023-03-19T10:18:14.210Z,7.30
2023-03-19T10:20:48.382Z,7.60
2023-03-19T10:23:25.682Z,7.87
2023-03-19T10:25:56.992Z,8.70
2023-03-19T10:28:25.550Z,8.80
2023-03-19T10:30:58.225Z,9.13
2023-03-19T10:33:27.348Z,8.20
2023-03-19T10:36:00.030Z,8.13
2023-03-19T10:38:29.299Z,8.50
2023-03-19T10:41:05.630Z,9.40
2023-03-19T10:43:34.920Z,8.70
2023-03-19T10:46:03.695Z,8.73
2023-03-19T10:48:33.472Z,8.50
2023-03-19T10:51:02.706Z,8.70
2023-03-19T10:53:33.653Z,7.93
2023-03-19T10:56:05.028Z,7.70
2023-03-19T10:58:34.597Z,7.87
2023-03-19T11:01:06.845Z,7.40
2023-03-19T11:03:36.055Z,7.30
2023-03-19T11:06:08.954Z,7.43
2023-03-19T11:08:38.264Z,6.53
2023-03-19T11:11:08.095Z,6.97
2023-03-19T11:13:37.183Z,6.73
2023-03-19T11:16:05.934Z,7.03
2023-03-19T11:18:39.129Z,6.60
2023-03-19T11:21:09.301Z,7.20
2023-03-19T11:23:41.447Z,10.57
2023-03-19T11:26:11.819Z,11.33
2023-03-19T11:28:40.227Z,11.83
2023-03-19T11:31:13.909Z,12.57
2023-03-19T11:33:50.203Z,13.00
2023-03-19T11:36:22.327Z,13.13
2023-03-19T11:38:55.291Z,13.17
2023-03-19T11:41:30.514Z,13.53
2023-03-19T11:44:01.375Z,9.10
2023-03-19T11:46:36.637Z,9.80
2023-03-19T11:49:10.086Z,11.30
2023-03-19T11:51:42.902Z,12.93
2023-03-19T11:54:16.475Z,13.37
2023-03-19T11:56:50.136Z,13.37
2023-03-19T11:59:23.852Z,14.53
2023-03-19T12:02:01.828Z,14.73
2023-03-19T12:04:49.310Z,11.47
2023-03-19T12:07:25.441Z,8.97
2023-03-19T12:09:57.433Z,12.17
2023-03-19T12:12:30.601Z,13.37
2023-03-19T12:15:06.747Z,13.20
2023-03-19T12:17:41.661Z,11.90
2023-03-19T12:20:17.962Z,8.67
2023-03-19T12:22:52.655Z,10.90
2023-03-19T12:25:30.651Z,11.20
2023-03-19T12:28:04.995Z,11.77
2023-03-19T12:30:36.473Z,12.90
2023-03-19T12:33:14.947Z,11.27
2023-03-19T12:35:43.889Z,9.87
2023-03-19T12:38:15.437Z,8.10
2023-03-19T12:40:46.061Z,8.73
2023-03-19T12:43:19.617Z,10.47
2023-03-19T12:45:49.010Z,10.53
2023-03-19T12:48:19.576Z,10.10
2023-03-19T12:50:50.317Z,6.70
2023-03-19T12:53:24.617Z,7.10
2023-03-19T12:55:55.704Z,7.20
2023-03-19T12:58:28.295Z,7.63
2023-03-19T13:01:01.282Z,8.27
2023-03-19T13:03:33.702Z,5.57
2023-03-19T13:06:05.171Z,5.00
2023-03-19T13:08:35.035Z,6.07
2023-03-19T13:11:06.390Z,6.43
2023-03-19T13:13:42.518Z,6.10
2023-03-19T13:16:15.353Z,4.87
2023-03-19T13:18:49.186Z,4.63
2023-03-19T13:21:24.685Z,5.00
2023-03-19T13:24:00.885Z,5.70
2023-03-19T13:26:29.640Z,6.00
2023-03-19T13:29:03.339Z,4.73
2023-03-19T13:31:36.487Z,5.20
2023-03-19T13:34:06.036Z,5.90
2023-03-19T13:36:38.145Z,5.87
2023-03-19T13:39:13.027Z,6.50
2023-03-19T13:41:52.318Z,5.10
2023-03-19T13:44:26.642Z,4.87
2023-03-19T13:46:55.113Z,5.07
2023-03-19T13:49:26.681Z,5.70
2023-03-19T13:52:01.410Z,5.80
2023-03-19T13:54:37.170Z,4.33
2023-03-19T13:57:32.385Z,5.27
2023-03-19T14:00:22.120Z,5.00
2023-03-19T14:02:54.235Z,5.50
2023-03-19T14:05:23.273Z,4.50
2023-03-19T14:07:56.445Z,4.50
2023-03-19T14:10:27.156Z,4.63
2023-03-19T14:13:03.767Z,4.10
2023-03-19T14:15:33.775Z,3.20
2023-03-19T14:18:02.965Z,3.50
2023-03-19T14:20:40.522Z,4.03
2023-03-19T14:23:33.831Z,3.40
2023-03-19T14:26:08.804Z,3.90
2023-03-19T14:28:47.840Z,3.60
2023-03-19T14:31:22.051Z,3.57
2023-03-19T14:33:54.000Z,3.20
2023-03-19T14:36:22.846Z,3.70
2023-03-19T14:38:52.463Z,4.50
2023-03-19T14:41:22.428Z,3.70
2023-03-19T14:43:59.132Z,3.00
2023-03-19T14:46:32.668Z,2.70
2023-03-19T14:49:22.406Z,3.50
2023-03-19T14:51:55.931Z,3.63
2023-03-19T14:54:32.977Z,3.80
2023-03-19T14:57:07.595Z,2.73
2023-03-19T14:59:39.598Z,2.40
2023-03-19T15:02:19.209Z,2.70
2023-03-19T15:04:47.917Z,3.60
2023-03-19T15:07:20.739Z,3.80
2023-03-19T15:09:51.996Z,3.37
2023-03-19T15:12:47.505Z,2.60
2023-03-19T15:15:24.371Z,2.50
2023-03-19T15:18:03.782Z,3.53
2023-03-19T15:20:35.259Z,3.57
2023-03-19T15:23:11.014Z,3.27
2023-03-19T15:25:48.849Z,2.70
2023-03-19T15:28:18.622Z,3.17
2023-03-19T15:30:58.506Z,3.10
2023-03-19T15:33:40.568Z,3.60
2023-03-19T15:36:10.686Z,2.63
2023-03-19T15:38:41.449Z,2.70
2023-03-19T15:41:11.274Z,2.60
2023-03-19T15:43:41.318Z,3.20
2023-03-19T15:46:12.997Z,2.90
2023-03-19T15:48:44.454Z,2.20
2023-03-19T15:51:13.516Z,2.87
2023-03-19T15:53:42.245Z,3.00
2023-03-19T15:56:10.828Z,2.87
2023-03-19T15:58:41.143Z,2.50
2023-03-19T16:01:10.632Z,2.60
2023-03-19T16:03:40.013Z,2.80
2023-03-19T16:06:14.656Z,2.70
2023-03-19T16:08:48.889Z,2.60
2023-03-19T16:11:18.312Z,2.47
2023-03-19T16:13:54.749Z,2.60
2023-03-19T16:16:24.137Z,2.70
2023-03-19T16:18:53.397Z,2.47
2023-03-19T16:21:24.912Z,2.73
2023-03-19T16:23:55.113Z,3.10
2023-03-19T16:26:25.024Z,2.70
2023-03-19T16:29:01.127Z,2.80
2023-03-19T16:31:32.205Z,2.63
2023-03-19T16:34:00.702Z,2.73
2023-03-19T16:36:34.459Z,3.03
2023-03-19T16:39:27.543Z,2.90
2023-03-19T16:42:15.463Z,3.00
2023-03-19T16:44:45.328Z,3.10
2023-03-19T16:47:14.189Z,2.97
2023-03-19T16:49:42.677Z,3.07
2023-03-19T16:52:15.905Z,3.20
2023-03-19T16:54:44.579Z,3.00
2023-03-19T16:57:13.557Z,3.33
2023-03-19T16:59:41.988Z,3.40
2023-03-19T17:02:13.721Z,2.83
2023-03-19T17:04:42.508Z,2.97
2023-03-19T17:07:10.949Z,3.50
2023-03-19T17:09:41.050Z,3.00
2023-03-19T17:12:10.321Z,2.90
2023-03-19T17:14:38.960Z,3.63
2023-03-19T17:17:08.366Z,2.90
2023-03-19T17:19:37.259Z,3.50
2023-03-19T17:22:05.990Z,3.73
2023-03-19T17:24:35.361Z,3.67
2023-03-19T17:27:05.843Z,3.63
2023-03-19T17:29:34.696Z,3.83
2023-03-19T17:32:04.250Z,3.10
2023-03-19T17:34:33.288Z,3.40
2023-03-19T17:37:03.125Z,3.10
2023-03-19T17:39:32.160Z,2.70
2023-03-19T17:42:01.094Z,2.57
2023-03-19T17:44:30.909Z,2.40
2023-03-19T17:46:59.415Z,2.33
2023-03-19T17:49:29.012Z,2.60
2023-03-19T17:51:57.783Z,2.87
2023-03-19T17:54:27.281Z,3.37
2023-03-19T17:56:55.826Z,3.17
2023-03-19T17:59:24.351Z,3.40
2023-03-19T18:01:54.198Z,3.50
2023-03-19T18:04:23.380Z,3.50
2023-03-19T18:06:53.995Z,4.00
2023-03-19T18:09:23.562Z,4.03
2023-03-19T18:11:52.038Z,3.70
2023-03-19T18:14:20.429Z,3.60
2023-03-19T18:16:48.885Z,3.47
2023-03-19T18:19:23.514Z,3.90
2023-03-19T18:21:51.935Z,3.70
2023-03-19T18:24:20.323Z,3.60
2023-03-19T18:26:48.700Z,3.53
2023-03-19T18:29:17.376Z,3.47
2023-03-19T18:31:46.205Z,3.43
2023-03-19T18:34:15.787Z,3.43
2023-03-19T18:36:45.584Z,3.13
2023-03-19T18:39:15.143Z,3.37
2023-03-19T18:41:43.779Z,3.23
2023-03-19T18:44:12.358Z,3.33
2023-03-19T18:46:41.265Z,2.97
2023-03-19T18:49:16.020Z,3.37
2023-03-19T18:52:01.134Z,3.20
2023-03-19T18:54:31.681Z,3.03
2023-03-19T18:57:01.236Z,3.33
2023-03-19T18:59:32.584Z,2.97
2023-03-19T19:02:02.094Z,3.43
2023-03-19T19:04:31.253Z,3.30
2023-03-19T19:07:01.790Z,3.80
2023-03-19T19:09:30.227Z,3.27
2023-03-19T19:12:00.733Z,3.40
2023-03-19T19:14:29.548Z,3.57
2023-03-19T19:16:58.010Z,3.50
2023-03-19T19:19:27.650Z,3.73
2023-03-19T19:21:56.404Z,4.37
2023-03-19T19:24:26.193Z,4.67
2023-03-19T19:26:55.607Z,4.93
2023-03-19T19:29:25.027Z,5.47
2023-03-19T19:31:54.064Z,5.97
2023-03-19T19:34:22.528Z,7.50
2023-03-19T19:36:51.272Z,7.33
2023-03-19T19:39:19.946Z,7.27
2023-03-19T19:41:50.015Z,7.97
2023-03-19T19:44:20.859Z,7.87
2023-03-19T19:46:53.187Z,8.43
2023-03-19T19:49:23.272Z,8.43
2023-03-19T19:51:51.819Z,7.83
2023-03-19T19:54:21.398Z,8.67
2023-03-19T19:56:52.255Z,7.67
2023-03-19T19:59:21.191Z,8.17
2023-03-19T20:01:49.633Z,8.10
2023-03-19T20:04:18.247Z,8.43
2023-03-19T20:06:46.625Z,8.27
2023-03-19T20:09:15.039Z,8.17
2023-03-19T20:11:43.716Z,7.90
2023-03-19T20:14:15.403Z,8.13
2023-03-19T20:16:44.230Z,7.97
2023-03-19T20:19:18.823Z,7.93
2023-03-19T20:21:47.280Z,6.83
2023-03-19T20:24:15.663Z,7.70
2023-03-19T20:26:44.378Z,8.03
2023-03-19T20:29:16.256Z,8.00
2023-03-19T20:31:46.170Z,8.50
2023-03-19T20:34:28.709Z,8.37
2023-03-19T20:37:01.360Z,8.50
2023-03-19T20:39:29.869Z,9.20
2023-03-19T20:41:58.323Z,9.03
2023-03-19T20:44:28.967Z,8.73
2023-03-19T20:46:58.992Z,8.67
2023-03-19T20:49:29.163Z,8.93
2023-03-19T20:51:57.578Z,9.07
2023-03-19T20:54:26.145Z,9.50
2023-03-19T20:56:55.017Z,8.17
2023-03-19T20:59:23.418Z,9.83
2023-03-19T21:01:56.406Z,8.50
2023-03-19T21:04:24.898Z,9.20
2023-03-19T21:06:54.290Z,8.57
2023-03-19T21:09:23.193Z,9.27
2023-03-19T21:11:52.227Z,9.30
2023-03-19T21:14:23.292Z,9.60
2023-03-19T21:16:53.080Z,9.40
2023-03-19T21:19:21.480Z,9.70
2023-03-19T21:21:50.097Z,9.77
2023-03-19T21:24:19.475Z,9.20
2023-03-19T21:26:48.035Z,9.23
2023-03-19T21:29:17.404Z,9.03
2023-03-19T21:31:46.363Z,9.83
2023-03-19T21:34:16.590Z,8.93
2023-03-19T21:36:44.975Z,9.30
2023-03-19T21:39:13.603Z,9.23
2023-03-19T21:41:42.222Z,9.03
2023-03-19T21:44:12.576Z,9.40
2023-03-19T21:46:41.250Z,10.17
2023-03-19T21:49:12.788Z,10.23
2023-03-19T21:51:43.806Z,10.17
2023-03-19T21:54:12.257Z,9.83
2023-03-19T21:56:41.986Z,9.70
2023-03-19T21:59:14.394Z,9.33
2023-03-19T22:01:42.842Z,9.50
2023-03-19T22:04:11.334Z,9.90
2023-03-19T22:06:40.055Z,11.13
2023-03-19T22:09:09.859Z,10.67
2023-03-19T22:11:39.160Z,10.17
2023-03-19T22:14:09.628Z,11.07
2023-03-19T22:16:38.081Z,10.63
2023-03-19T22:19:06.800Z,11.47
2023-03-19T22:21:35.993Z,11.63
2023-03-19T22:24:04.427Z,11.73
2023-03-19T22:26:34.940Z,13.27
2023-03-19T22:29:04.622Z,12.10
2023-03-19T22:31:33.397Z,17.30
2023-03-19T22:34:01.979Z,16.33
2023-03-19T22:36:30.407Z,17.37
2023-03-19T22:38:58.965Z,16.67
2023-03-19T22:41:29.053Z,16.20
2023-03-19T22:43:59.156Z,16.13
2023-03-19T22:46:27.728Z,15.10
2023-03-19T22:48:56.796Z,15.30
2023-03-19T22:51:26.213Z,15.33
2023-03-19T22:53:54.884Z,14.87
2023-03-19T22:56:23.603Z,13.50
2023-03-19T22:58:52.727Z,14.73
2023-03-19T23:01:30.970Z,15.70
2023-03-19T23:04:00.867Z,16.60
2023-03-19T23:06:31.078Z,16.60
2023-03-19T23:08:59.619Z,17.97
2023-03-19T23:11:28.050Z,17.30
2023-03-19T23:13:56.859Z,17.83
2023-03-19T23:16:26.699Z,17.97
2023-03-19T23:18:57.146Z,18.13
2023-03-19T23:21:25.836Z,18.80
2023-03-19T23:23:54.654Z,19.07
2023-03-19T23:26:26.129Z,19.07
2023-03-19T23:28:54.874Z,19.07
2023-03-19T23:31:23.288Z,18.70
2023-03-19T23:33:51.770Z,19.70
2023-03-19T23:36:21.848Z,19.13
2023-03-19T23:38:51.706Z,19.90
2023-03-19T23:41:22.402Z,20.73
2023-03-19T23:43:51.587Z,21.90
2023-03-19T23:46:20.275Z,21.70
2023-03-19T23:48:48.943Z,21.03
2023-03-19T23:51:17.906Z,22.33
2023-03-19T23:53:47.708Z,21.57
2023-03-19T23:56:19.968Z,22.00
2023-03-19T23:58:49.331Z,23.03
